createdAt,value
2023-03-23T15:58:21.256Z,55.88
2023-03-23T16:03:27.051Z,55.85
2023-03-23T16:08:23.910Z,56.42
2023-03-23T16:13:22.472Z,56.55
2023-03-23T16:18:21.319Z,57.12
2023-03-23T16:23:18.467Z,57.31
2023-03-23T16:28:21.355Z,58.06
2023-03-23T16:33:26.724Z,58.50
2023-03-23T16:38:27.184Z,58.80
2023-03-23T16:43:34.210Z,59.46
2023-03-23T16:48:33.949Z,59.77
2023-03-23T16:53:32.038Z,60.07
2023-03-23T16:58:29.542Z,60.37
2023-03-23T17:03:26.828Z,60.76
2023-03-23T17:08:24.078Z,61.45
2023-03-23T17:13:21.012Z,61.71
2023-03-23T17:18:18.847Z,62.07
2023-03-23T17:23:18.683Z,62.06
2023-03-23T17:28:17.023Z,62.22
2023-03-23T17:33:19.002Z,62.84
2023-03-23T17:38:22.553Z,62.90
2023-03-23T17:43:22.360Z,63.40
2023-03-23T17:48:20.863Z,64.03
2023-03-23T17:53:22.739Z,64.26
2023-03-23T17:58:20.032Z,64.59
2023-03-23T18:03:22.107Z,64.62
2023-03-23T18:08:19.083Z,64.85
2023-03-23T18:13:16.072Z,65.20
2023-03-23T18:18:13.430Z,65.50
2023-03-23T18:23:11.445Z,65.24
2023-03-23T18:28:08.366Z,65.59
2023-03-23T18:33:05.685Z,65.59
2023-03-23T18:38:02.652Z,65.92
2023-03-23T18:43:00.464Z,65.66
2023-03-23T18:47:57.375Z,66.20
2023-03-23T18:53:00.325Z,66.03
2023-03-23T18:58:00.467Z,66.06
2023-03-23T19:03:02.489Z,66.21
2023-03-23T19:08:03.156Z,65.91
2023-03-23T19:13:01.089Z,65.81
2023-03-23T19:17:58.759Z,66.20
2023-03-23T19:22:57.559Z,66.33
2023-03-23T19:32:56.180Z,66.01
2023-03-23T19:37:56.031Z,66.10
2023-03-23T19:42:53.418Z,66.15
2023-03-23T19:47:55.810Z,66.26
2023-03-23T19:52:52.877Z,66.53
2023-03-23T19:57:52.289Z,66.28
2023-03-23T20:02:49.194Z,66.16
2023-03-23T20:07:51.398Z,66.00
2023-03-23T20:12:48.641Z,66.25
2023-03-23T20:17:47.554Z,65.90
2023-03-23T20:22:44.648Z,65.49
2023-03-23T20:27:41.715Z,65.90
2023-03-23T20:32:40.021Z,66.37
2023-03-23T20:37:38.842Z,65.84
2023-03-23T20:42:37.257Z,65.97
2023-03-23T20:47:34.255Z,66.48
2023-03-23T20:52:31.214Z,66.85
2023-03-23T20:57:28.939Z,66.11
2023-03-23T21:02:31.090Z,66.13
2023-03-23T21:07:27.864Z,66.13
2023-03-23T21:12:24.820Z,66.56
2023-03-23T21:17:22.630Z,66.95
2023-03-23T21:22:19.647Z,67.11
2023-03-23T21:27:17.402Z,66.71
2023-03-23T21:32:14.159Z,66.94
2023-03-23T21:37:14.423Z,67.19
2023-03-23T21:42:13.023Z,67.36
2023-03-23T21:47:12.802Z,67.29
2023-03-23T21:52:09.663Z,67.47
2023-03-23T21:57:07.388Z,67.88
2023-03-23T22:02:04.388Z,67.65
2023-03-23T22:07:01.584Z,67.78
2023-03-23T22:11:58.658Z,68.09
2023-03-23T22:16:56.364Z,68.34
2023-03-23T22:21:53.270Z,67.67
2023-03-23T22:26:50.346Z,67.20
2023-03-23T22:31:47.334Z,67.39
2023-03-23T22:36:44.972Z,67.16
2023-03-23T22:41:42.445Z,66.90
2023-03-23T22:46:39.778Z,67.38
2023-03-23T22:51:36.691Z,67.64
2023-03-23T22:56:36.451Z,67.79
2023-03-23T23:01:34.123Z,67.65
2023-03-23T23:06:31.059Z,67.81
2023-03-23T23:11:27.934Z,67.78
2023-03-23T23:16:26.796Z,67.82
2023-03-23T23:21:25.975Z,67.14
2023-03-23T23:26:23.042Z,67.43
2023-03-23T23:31:25.353Z,67.08
2023-03-23T23:36:23.162Z,67.14
2023-03-23T23:41:20.030Z,67.41
2023-03-23T23:46:17.002Z,68.06
2023-03-23T23:51:15.821Z,67.34
2023-03-23T23:56:14.180Z,66.75
